createdAt,value
2023-04-28T00:02:19.165Z,26.02
2023-04-28T00:04:46.332Z,24.58
2023-04-28T00:07:13.511Z,25.52
2023-04-28T00:09:40.356Z,25.92
2023-04-28T00:12:07.432Z,24.00
2023-04-28T00:14:34.287Z,25.60
2023-04-28T00:17:02.008Z,25.85
2023-04-28T00:19:29.172Z,23.35
2023-04-28T00:21:56.174Z,24.88
2023-04-28T00:24:22.984Z,23.92
2023-04-28T00:26:49.908Z,25.13
2023-04-28T00:29:16.744Z,24.13
2023-04-28T00:31:44.609Z,24.23
2023-04-28T00:34:14.616Z,24.00
2023-04-28T00:36:41.661Z,23.77
2023-04-28T00:39:08.502Z,23.92
2023-04-28T00:41:35.987Z,24.73
2023-04-28T00:44:02.828Z,23.83
2023-04-28T00:46:32.219Z,23.42
2023-04-28T00:49:01.197Z,24.40
2023-04-28T00:51:29.254Z,24.08
2023-04-28T00:53:57.153Z,23.73
2023-04-28T00:56:24.033Z,24.38
2023-04-28T00:58:50.986Z,24.83
2023-04-28T01:01:18.318Z,24.25
2023-04-28T01:03:47.916Z,23.05
2023-04-28T01:06:15.353Z,23.25
2023-04-28T01:08:42.705Z,23.33
2023-04-28T01:11:14.437Z,22.80
2023-04-28T01:13:41.402Z,23.17
2023-04-28T01:16:08.242Z,23.92
2023-04-28T01:18:35.275Z,23.67
2023-04-28T01:21:04.549Z,24.63
2023-04-28T01:23:31.898Z,23.92
2023-04-28T01:25:58.720Z,24.92
2023-04-28T01:28:25.520Z,25.73
2023-04-28T01:30:52.351Z,31.70
2023-04-28T01:33:19.220Z,34.58
2023-04-28T01:35:46.023Z,30.55
2023-04-28T01:38:12.833Z,25.65
2023-04-28T01:40:39.682Z,25.52
2023-04-28T01:43:07.052Z,24.02
2023-04-28T01:45:33.841Z,25.77
2023-04-28T01:48:00.773Z,24.17
2023-04-28T01:50:27.663Z,23.33
2023-04-28T01:52:56.811Z,22.73
2023-04-28T01:55:23.692Z,22.00
2023-04-28T01:57:50.501Z,22.67
2023-04-28T02:00:17.795Z,21.63
2023-04-28T02:02:46.816Z,22.10
2023-04-28T02:05:13.807Z,21.55
2023-04-28T02:07:40.748Z,23.40
2023-04-28T02:10:09.479Z,22.75
2023-04-28T02:12:36.287Z,24.20
2023-04-28T02:15:03.238Z,21.70
2023-04-28T02:17:33.047Z,23.02
2023-04-28T02:19:59.945Z,23.92
2023-04-28T02:22:26.843Z,23.30
2023-04-28T02:24:53.665Z,23.80
2023-04-28T02:27:21.503Z,24.70
2023-04-28T02:29:59.319Z,24.77
2023-04-28T02:32:26.213Z,25.38
2023-04-28T02:34:54.678Z,24.83
2023-04-28T02:37:21.687Z,26.20
2023-04-28T02:39:48.540Z,24.48
2023-04-28T02:42:17.912Z,25.13
2023-04-28T02:44:44.759Z,26.50
2023-04-28T02:47:12.159Z,24.42
2023-04-28T02:49:41.605Z,25.80
2023-04-28T02:52:08.473Z,24.75
2023-04-28T02:54:37.203Z,25.35
2023-04-28T02:57:04.765Z,25.27
2023-04-28T02:59:31.714Z,24.70
2023-04-28T03:01:58.661Z,24.92
2023-04-28T03:04:25.671Z,25.25
2023-04-28T03:06:52.595Z,26.58
2023-04-28T03:09:19.484Z,27.52
2023-04-28T03:11:46.312Z,25.33
2023-04-28T03:14:13.249Z,27.48
2023-04-28T03:16:40.206Z,26.80
2023-04-28T03:19:07.061Z,26.40
2023-04-28T03:21:36.196Z,23.90
2023-04-28T03:24:05.261Z,23.52
2023-04-28T03:26:32.455Z,23.63
2023-04-28T03:28:59.286Z,22.65
2023-04-28T03:31:26.157Z,23.05
2023-04-28T03:33:53.075Z,23.88
2023-04-28T03:36:19.889Z,21.85
2023-04-28T03:38:46.862Z,23.30
2023-04-28T03:41:13.691Z,21.83
2023-04-28T03:43:42.652Z,21.63
2023-04-28T03:46:09.507Z,21.63
2023-04-28T03:48:36.359Z,22.20
2023-04-28T03:51:05.423Z,20.83
2023-04-28T03:53:34.391Z,22.05
2023-04-28T03:56:03.588Z,21.30
2023-04-28T03:58:30.601Z,21.45
2023-04-28T04:00:57.484Z,24.45
2023-04-28T04:03:27.510Z,23.13
2023-04-28T04:05:55.799Z,22.75
2023-04-28T04:08:22.691Z,21.75
2023-04-28T04:10:49.456Z,22.75
2023-04-28T04:13:16.280Z,21.20
2023-04-28T04:15:43.180Z,23.33
2023-04-28T04:18:10.107Z,21.75
2023-04-28T04:20:36.946Z,22.20
2023-04-28T04:23:03.868Z,22.05
2023-04-28T04:25:32.367Z,21.55
2023-04-28T04:27:59.779Z,22.35
2023-04-28T04:30:26.672Z,21.52
2023-04-28T04:32:53.563Z,22.13
2023-04-28T04:35:20.462Z,21.73
2023-04-28T04:37:47.235Z,20.40
2023-04-28T04:40:14.096Z,22.45
2023-04-28T04:42:41.177Z,22.75
2023-04-28T04:45:08.711Z,21.95
2023-04-28T04:47:35.790Z,22.15
2023-04-28T04:50:02.834Z,23.95
2023-04-28T04:52:29.699Z,21.73
2023-04-28T04:54:56.637Z,23.45
2023-04-28T04:57:23.507Z,23.27
2023-04-28T04:59:50.327Z,25.48
2023-04-28T05:02:17.546Z,21.67
2023-04-28T05:04:44.662Z,21.33
2023-04-28T05:07:11.654Z,22.05
2023-04-28T05:09:38.609Z,22.23
2023-04-28T05:12:05.848Z,20.40
2023-04-28T05:14:32.753Z,19.88
2023-04-28T05:16:59.827Z,19.90
2023-04-28T05:19:26.698Z,20.80
2023-04-28T05:21:54.868Z,21.75
2023-04-28T05:24:24.762Z,22.67
2023-04-28T05:26:54.682Z,21.60
2023-04-28T05:29:22.035Z,21.42
2023-04-28T05:31:48.865Z,21.17
2023-04-28T05:34:16.226Z,22.90
2023-04-28T05:36:44.297Z,20.42
2023-04-28T05:39:11.194Z,21.92
2023-04-28T05:41:38.100Z,24.95
2023-04-28T05:44:06.177Z,25.50
2023-04-28T05:46:33.553Z,27.08
2023-04-28T05:49:00.636Z,28.38
2023-04-28T05:51:27.610Z,26.52
2023-04-28T05:53:54.439Z,25.92
2023-04-28T05:56:21.474Z,25.73
2023-04-28T05:58:50.524Z,22.77
2023-04-28T06:01:17.671Z,21.48
2023-04-28T06:03:45.515Z,20.55
2023-04-28T06:06:13.493Z,18.85
2023-04-28T06:08:40.656Z,17.50
2023-04-28T06:11:07.520Z,15.15
2023-04-28T06:13:34.374Z,17.70
2023-04-28T06:16:01.289Z,17.85
2023-04-28T06:18:32.568Z,15.73
2023-04-28T06:20:59.532Z,15.73
2023-04-28T06:23:26.356Z,15.70
2023-04-28T06:25:53.346Z,15.45
2023-04-28T06:28:20.304Z,11.43
2023-04-28T06:30:47.221Z,11.48
2023-04-28T06:33:14.047Z,12.05
2023-04-28T06:35:40.860Z,10.60
2023-04-28T06:38:07.836Z,9.88
2023-04-28T06:40:34.695Z,10.05
2023-04-28T06:43:01.585Z,8.75
2023-04-28T06:45:28.370Z,9.13
2023-04-28T06:48:00.598Z,8.48
2023-04-28T06:50:27.475Z,7.75
2023-04-28T06:52:54.309Z,8.57
2023-04-28T06:55:21.196Z,6.45
2023-04-28T06:57:47.977Z,6.60
2023-04-28T07:00:16.145Z,7.68
2023-04-28T07:02:43.230Z,6.28
2023-04-28T07:05:10.295Z,4.93
2023-04-28T07:07:39.082Z,4.20
2023-04-28T07:10:06.769Z,3.70
2023-04-28T07:12:33.635Z,3.75
2023-04-28T07:15:02.723Z,3.53
2023-04-28T07:17:29.553Z,3.40
2023-04-28T07:19:56.385Z,3.38
2023-04-28T07:22:23.339Z,3.00
2023-04-28T07:24:52.539Z,3.78
2023-04-28T07:27:19.424Z,3.10
2023-04-28T07:29:46.218Z,4.07
2023-04-28T07:32:13.144Z,3.60
2023-04-28T07:34:40.079Z,2.15
2023-04-28T07:37:07.141Z,2.30
2023-04-28T07:39:35.326Z,2.65
2023-04-28T07:42:03.640Z,2.60
2023-04-28T07:44:31.104Z,1.60
2023-04-28T07:46:59.558Z,2.13
2023-04-28T07:49:29.345Z,2.45
2023-04-28T07:51:56.642Z,1.17
2023-04-28T07:54:23.922Z,1.52
2023-04-28T07:56:50.773Z,1.90
2023-04-28T07:59:17.611Z,1.67
2023-04-28T08:01:46.693Z,1.20
2023-04-28T08:04:14.501Z,1.40
2023-04-28T08:06:42.005Z,1.45
2023-04-28T08:09:11.366Z,1.80
2023-04-28T08:11:38.280Z,1.40
2023-04-28T08:14:05.183Z,1.10
2023-04-28T08:16:32.259Z,1.77
2023-04-28T08:19:00.530Z,1.90
2023-04-28T08:21:27.523Z,1.77
2023-04-28T08:23:54.452Z,1.52
2023-04-28T08:26:21.400Z,2.00
2023-04-28T08:28:48.301Z,2.20
2023-04-28T08:31:15.243Z,1.70
2023-04-28T08:33:44.798Z,1.50
2023-04-28T08:36:15.173Z,1.67
2023-04-28T08:38:42.287Z,1.75
2023-04-28T08:41:09.226Z,1.77
2023-04-28T08:43:37.023Z,1.80
2023-04-28T08:46:07.128Z,2.10
2023-04-28T08:48:48.858Z,1.75
2023-04-28T08:51:34.663Z,1.60
2023-04-28T08:54:22.864Z,1.90
2023-04-28T08:56:51.844Z,1.80
2023-04-28T08:59:18.812Z,1.50
2023-04-28T09:01:48.941Z,2.22
2023-04-28T09:04:18.326Z,1.45
2023-04-28T09:06:46.548Z,1.50
2023-04-28T09:09:33.266Z,1.52
2023-04-28T09:12:03.770Z,1.75
2023-04-28T09:14:35.504Z,1.50
2023-04-28T09:19:37.363Z,1.35
2023-04-28T09:22:21.833Z,1.45
2023-04-28T09:24:53.350Z,1.50
2023-04-28T09:27:29.702Z,1.38
2023-04-28T09:29:56.767Z,1.17
2023-04-28T09:32:24.842Z,1.00
2023-04-28T09:34:54.476Z,1.30
2023-04-28T09:37:31.109Z,1.42
2023-04-28T09:40:14.019Z,1.33
2023-04-28T09:42:45.983Z,1.40
2023-04-28T09:45:14.791Z,1.40
2023-04-28T09:47:43.507Z,1.38
2023-04-28T09:50:15.263Z,1.30
2023-04-28T09:55:09.704Z,1.20
2023-04-28T09:57:36.913Z,1.55
2023-04-28T10:00:09.429Z,1.88
2023-04-28T10:05:09.905Z,1.58
2023-04-28T10:07:37.742Z,1.45
2023-04-28T10:10:06.327Z,1.42
2023-04-28T10:12:38.573Z,1.40
2023-04-28T10:15:10.266Z,1.40
2023-04-28T10:17:37.446Z,1.33
2023-04-28T10:20:05.564Z,1.75
2023-04-28T10:22:51.593Z,1.40
2023-04-28T10:25:26.594Z,1.48
2023-04-28T10:27:54.134Z,2.22
2023-04-28T10:30:28.298Z,1.65
2023-04-28T10:33:15.095Z,2.10
2023-04-28T10:35:44.436Z,1.50
2023-04-28T10:38:23.439Z,1.70
2023-04-28T10:40:51.737Z,1.60
2023-04-28T10:43:31.858Z,1.95
2023-04-28T10:46:01.913Z,1.40
2023-04-28T10:48:37.363Z,1.65
2023-04-28T10:51:06.982Z,1.75
2023-04-28T10:53:46.096Z,1.77
2023-04-28T10:56:19.512Z,1.38
2023-04-28T10:58:47.254Z,1.67
2023-04-28T11:01:25.738Z,1.70
2023-04-28T11:04:00.468Z,1.75
2023-04-28T11:06:29.065Z,1.70
2023-04-28T11:08:57.911Z,1.48
2023-04-28T11:11:39.196Z,1.73
2023-04-28T11:14:18.439Z,1.58
2023-04-28T11:17:01.976Z,1.70
2023-04-28T11:19:29.457Z,1.45
2023-04-28T11:21:58.036Z,1.60
2023-04-28T11:24:29.486Z,1.80
2023-04-28T11:26:57.174Z,1.58
2023-04-28T11:29:34.402Z,1.48
2023-04-28T11:32:02.277Z,1.50
2023-04-28T11:34:29.193Z,1.55
2023-04-28T11:36:56.213Z,1.77
2023-04-28T11:39:31.043Z,1.55
2023-04-28T11:41:58.971Z,1.83
2023-04-28T11:44:28.143Z,1.60
2023-04-28T11:46:57.516Z,2.20
2023-04-28T11:49:24.945Z,1.70
2023-04-28T11:51:57.627Z,1.80
2023-04-28T11:54:26.848Z,1.85
2023-04-28T11:56:55.197Z,1.67
2023-04-28T11:59:27.347Z,2.10
2023-04-28T12:01:55.324Z,1.75
2023-04-28T12:04:29.213Z,2.10
2023-04-28T12:07:13.554Z,2.28
2023-04-28T12:09:41.910Z,1.63
2023-04-28T12:12:18.525Z,2.10
2023-04-28T12:14:58.626Z,1.90
2023-04-28T12:17:40.457Z,2.40
2023-04-28T12:22:49.731Z,1.70
2023-04-28T12:25:19.424Z,1.80
2023-04-28T12:28:02.704Z,1.98
2023-04-28T12:30:31.561Z,2.03
2023-04-28T12:32:58.665Z,2.10
2023-04-28T12:35:26.993Z,1.90
2023-04-28T12:37:55.448Z,1.88
2023-04-28T12:40:23.233Z,2.60
2023-04-28T12:42:50.829Z,2.28
2023-04-28T12:45:17.806Z,2.10
2023-04-28T12:47:44.754Z,1.80
2023-04-28T12:50:11.983Z,3.38
2023-04-28T12:52:38.837Z,2.30
2023-04-28T12:55:07.360Z,2.90
2023-04-28T12:57:39.134Z,2.47
2023-04-28T13:00:07.762Z,2.75
2023-04-28T13:02:35.298Z,3.35
2023-04-28T13:05:03.043Z,2.30
2023-04-28T13:07:30.630Z,2.40
2023-04-28T13:09:58.309Z,4.85
2023-04-28T13:12:27.304Z,2.60
2023-04-28T13:14:54.228Z,3.53
2023-04-28T13:17:21.119Z,3.15
2023-04-28T13:19:48.103Z,2.95
2023-04-28T13:22:15.884Z,3.75
2023-04-28T13:24:45.190Z,3.47
2023-04-28T13:27:12.187Z,3.08
2023-04-28T13:29:39.056Z,4.13
2023-04-28T13:32:06.708Z,3.78
2023-04-28T13:34:33.720Z,3.30
2023-04-28T13:37:00.600Z,4.20
2023-04-28T13:39:27.396Z,3.78
2023-04-28T13:41:54.285Z,3.45
2023-04-28T13:44:21.329Z,4.30
2023-04-28T13:46:48.330Z,3.83
2023-04-28T13:49:15.189Z,4.00
2023-04-28T13:51:41.960Z,3.58
2023-04-28T13:54:10.600Z,4.20
2023-04-28T13:56:40.080Z,4.75
2023-04-28T13:59:07.355Z,3.50
2023-04-28T14:01:34.237Z,4.07
2023-04-28T14:04:03.578Z,4.10
2023-04-28T14:06:34.672Z,4.22
2023-04-28T14:09:02.806Z,4.15
2023-04-28T14:11:29.634Z,4.25
2023-04-28T14:13:56.512Z,4.85
2023-04-28T14:16:23.504Z,4.07
2023-04-28T14:18:50.410Z,4.75
2023-04-28T14:21:17.236Z,4.40
2023-04-28T14:23:44.071Z,4.55
2023-04-28T14:26:10.956Z,5.10
2023-04-28T14:28:37.837Z,4.93
2023-04-28T14:31:09.105Z,5.78
2023-04-28T14:33:36.973Z,5.55
2023-04-28T14:36:04.145Z,5.25
2023-04-28T14:38:31.276Z,4.35
2023-04-28T14:40:58.570Z,4.60
2023-04-28T14:43:25.732Z,4.50
2023-04-28T14:45:53.469Z,4.40
2023-04-28T14:48:23.010Z,4.50
2023-04-28T14:50:59.057Z,3.95
2023-04-28T14:53:25.921Z,4.70
2023-04-28T14:55:59.562Z,5.15
2023-04-28T14:58:34.266Z,4.95
2023-04-28T15:01:01.556Z,4.90
2023-04-28T15:03:28.578Z,5.07
2023-04-28T15:05:55.581Z,5.30
2023-04-28T15:08:22.365Z,5.40
2023-04-28T15:10:49.211Z,4.90
2023-04-28T15:13:16.063Z,5.40
2023-04-28T15:15:42.963Z,4.95
2023-04-28T15:18:10.166Z,5.10
2023-04-28T15:20:38.329Z,4.95
2023-04-28T15:23:05.213Z,5.65
2023-04-28T15:25:32.132Z,5.70
2023-04-28T15:27:59.128Z,5.32
2023-04-28T15:30:26.084Z,5.68
2023-04-28T15:32:53.025Z,5.68
2023-04-28T15:35:22.274Z,5.18
2023-04-28T15:37:52.178Z,4.78
2023-04-28T15:40:22.348Z,5.60
2023-04-28T15:42:49.585Z,5.90
2023-04-28T15:45:19.686Z,5.75
2023-04-28T15:47:50.823Z,5.20
2023-04-28T15:50:19.856Z,5.22
2023-04-28T15:52:47.467Z,6.10
2023-04-28T15:55:18.934Z,5.18
2023-04-28T15:57:46.679Z,4.97
2023-04-28T16:00:17.318Z,4.88
2023-04-28T16:02:45.064Z,5.95
2023-04-28T16:05:12.719Z,5.25
2023-04-28T16:07:41.095Z,5.40
2023-04-28T16:10:09.954Z,6.13
2023-04-28T16:12:37.344Z,5.22
2023-04-28T16:15:04.780Z,5.75
2023-04-28T16:17:31.863Z,5.05
2023-04-28T16:19:58.722Z,5.18
2023-04-28T16:22:25.904Z,5.53
2023-04-28T16:24:53.879Z,6.30
2023-04-28T16:27:20.945Z,6.30
2023-04-28T16:29:47.776Z,5.90
2023-04-28T16:32:15.046Z,5.75
2023-04-28T16:34:42.067Z,5.60
2023-04-28T16:37:09.103Z,5.70
2023-04-28T16:39:35.957Z,5.82
2023-04-28T16:42:04.031Z,5.68
2023-04-28T16:44:31.196Z,5.82
2023-04-28T16:46:59.066Z,5.80
2023-04-28T16:49:26.201Z,5.97
2023-04-28T16:52:06.702Z,7.15
2023-04-28T16:54:33.755Z,5.57
2023-04-28T16:57:02.579Z,5.65
2023-04-28T16:59:33.948Z,6.07
2023-04-28T17:02:02.054Z,5.90
2023-04-28T17:04:29.149Z,6.68
2023-04-28T17:06:58.975Z,6.10
2023-04-28T17:09:26.367Z,6.80
2023-04-28T17:11:55.507Z,5.70
2023-04-28T17:14:22.431Z,4.80
2023-04-28T17:16:49.417Z,7.10
2023-04-28T17:19:16.887Z,7.03
2023-04-28T17:21:43.895Z,6.70
2023-04-28T17:24:10.746Z,6.30
2023-04-28T17:29:08.294Z,5.97
2023-04-28T17:31:38.236Z,5.95
2023-04-28T17:34:06.242Z,6.78
2023-04-28T17:36:33.717Z,7.38
2023-04-28T17:39:05.592Z,9.18
2023-04-28T17:41:32.480Z,8.55
2023-04-28T17:43:59.465Z,7.72
2023-04-28T17:46:26.416Z,7.90
2023-04-28T17:48:53.423Z,8.07
2023-04-28T17:51:20.684Z,9.82
2023-04-28T17:53:48.772Z,8.32
2023-04-28T17:56:16.182Z,8.07
2023-04-28T17:58:43.101Z,8.55
2023-04-28T18:01:09.946Z,7.88
2023-04-28T18:03:40.088Z,8.23
2023-04-28T18:06:08.324Z,10.32
2023-04-28T18:08:36.890Z,10.27
2023-04-28T18:11:07.062Z,10.65
2023-04-28T18:13:33.903Z,10.38
2023-04-28T18:16:01.334Z,12.15
2023-04-28T18:18:30.171Z,11.23
2023-04-28T18:20:59.244Z,11.77
2023-04-28T18:23:26.903Z,10.57
2023-04-28T18:25:53.768Z,9.75
2023-04-28T18:28:20.694Z,7.82
2023-04-28T18:30:47.595Z,7.63
2023-04-28T18:33:14.493Z,7.88
2023-04-28T18:35:42.723Z,10.30
2023-04-28T18:38:09.896Z,10.65
2023-04-28T18:40:38.709Z,11.30
2023-04-28T18:43:10.616Z,14.65
2023-04-28T18:45:41.187Z,16.10
2023-04-28T18:48:09.540Z,12.15
2023-04-28T18:50:36.580Z,13.00
2023-04-28T18:53:04.557Z,13.15
2023-04-28T18:55:34.564Z,13.07
2023-04-28T18:58:04.152Z,14.32
2023-04-28T19:00:31.499Z,14.23
2023-04-28T19:02:58.494Z,11.93
2023-04-28T19:05:25.986Z,10.23
2023-04-28T19:07:52.855Z,8.77
2023-04-28T19:10:19.692Z,9.40
2023-04-28T19:12:46.581Z,10.05
2023-04-28T19:15:13.823Z,10.52
2023-04-28T19:17:40.861Z,11.18
2023-04-28T19:20:08.891Z,11.65
2023-04-28T19:22:41.376Z,12.00
2023-04-28T19:25:09.032Z,14.02
2023-04-28T19:27:38.785Z,13.38
2023-04-28T19:30:07.818Z,11.27
2023-04-28T19:32:34.882Z,11.00
2023-04-28T19:35:05.561Z,12.48
2023-04-28T19:37:34.184Z,14.98
2023-04-28T19:40:04.872Z,14.02
2023-04-28T19:42:35.277Z,14.77
2023-04-28T19:45:02.389Z,15.90
2023-04-28T19:47:33.284Z,17.35
2023-04-28T19:50:00.200Z,17.90
2023-04-28T19:52:27.976Z,17.88
2023-04-28T19:54:54.960Z,18.65
2023-04-28T19:57:22.022Z,16.17
2023-04-28T19:59:49.876Z,14.57
2023-04-28T20:02:17.439Z,14.25
2023-04-28T20:04:44.371Z,12.52
2023-04-28T20:07:14.175Z,13.43
2023-04-28T20:09:41.176Z,16.58
2023-04-28T20:12:09.397Z,16.60
2023-04-28T20:14:37.629Z,12.57
2023-04-28T20:17:05.182Z,10.88
2023-04-28T20:19:32.081Z,11.20
2023-04-28T20:21:58.969Z,10.25
2023-04-28T20:24:26.034Z,11.75
2023-04-28T20:26:54.669Z,11.10
2023-04-28T20:29:21.774Z,10.55
2023-04-28T20:31:48.785Z,9.68
2023-04-28T20:34:18.205Z,11.45
2023-04-28T20:36:45.117Z,13.20
2023-04-28T20:39:14.460Z,11.35
2023-04-28T20:41:41.327Z,13.00
2023-04-28T20:44:08.710Z,12.02
2023-04-28T20:46:36.233Z,12.95
2023-04-28T20:49:04.307Z,10.88
2023-04-28T20:51:34.186Z,10.65
2023-04-28T20:54:01.640Z,10.55
2023-04-28T20:56:28.658Z,10.60
2023-04-28T20:58:58.729Z,10.60
2023-04-28T21:01:58.928Z,9.80
2023-04-28T21:04:50.972Z,13.25
2023-04-28T21:09:47.872Z,10.07
2023-04-28T21:12:17.252Z,9.95
2023-04-28T21:14:44.465Z,9.15
2023-04-28T21:17:11.402Z,10.00
2023-04-28T21:19:38.343Z,10.45
2023-04-28T21:22:05.249Z,10.13
2023-04-28T21:24:34.419Z,11.13
2023-04-28T21:27:02.935Z,10.45
2023-04-28T21:29:29.771Z,10.05
2023-04-28T21:31:56.732Z,10.52
2023-04-28T21:34:23.625Z,10.65
2023-04-28T21:36:50.572Z,11.35
2023-04-28T21:39:17.605Z,10.48
2023-04-28T21:41:44.616Z,11.35
2023-04-28T21:44:11.492Z,11.40
2023-04-28T21:46:39.353Z,11.05
2023-04-28T21:49:06.235Z,11.35
2023-04-28T21:51:33.122Z,11.15
2023-04-28T21:53:59.961Z,10.82
2023-04-28T21:56:27.070Z,10.60
2023-04-28T21:58:53.979Z,11.27
2023-04-28T22:01:21.141Z,11.32
2023-04-28T22:03:48.467Z,11.82
2023-04-28T22:06:15.702Z,11.35
2023-04-28T22:08:44.762Z,11.38
2023-04-28T22:11:11.804Z,11.23
2023-04-28T22:13:38.820Z,11.43
2023-04-28T22:16:06.006Z,12.68
2023-04-28T22:18:32.830Z,11.00
2023-04-28T22:21:01.139Z,12.15
2023-04-28T22:23:28.013Z,11.70
2023-04-28T22:25:59.163Z,10.63
2023-04-28T22:28:26.662Z,11.85
2023-04-28T22:30:54.506Z,11.45
2023-04-28T22:33:21.416Z,12.50
2023-04-28T22:35:48.398Z,11.18
2023-04-28T22:38:15.363Z,11.23
2023-04-28T22:40:44.041Z,12.18
2023-04-28T22:43:10.826Z,12.30
2023-04-28T22:45:45.825Z,11.82
2023-04-28T22:48:13.915Z,12.63
2023-04-28T22:50:41.086Z,10.73
2023-04-28T22:53:09.588Z,11.45
2023-04-28T22:55:36.803Z,11.63
2023-04-28T22:58:03.802Z,11.52
2023-04-28T23:00:30.633Z,10.95
2023-04-28T23:02:57.569Z,11.07
2023-04-28T23:05:24.472Z,11.00
2023-04-28T23:07:51.320Z,11.48
2023-04-28T23:10:20.866Z,11.18
2023-04-28T23:12:47.706Z,10.43
2023-04-28T23:15:14.569Z,10.65
2023-04-28T23:17:42.035Z,11.07
2023-04-28T23:20:09.434Z,10.63
2023-04-28T23:22:36.297Z,10.70
2023-04-28T23:25:04.339Z,10.93
2023-04-28T23:27:31.152Z,10.30
2023-04-28T23:29:57.996Z,10.65
2023-04-28T23:32:27.235Z,10.65
2023-04-28T23:34:56.330Z,10.60
2023-04-28T23:37:23.085Z,11.18
2023-04-28T23:39:50.254Z,11.15
2023-04-28T23:42:17.616Z,9.90
2023-04-28T23:44:44.500Z,10.77
2023-04-28T23:47:12.137Z,10.85
2023-04-28T23:49:39.292Z,10.45
2023-04-28T23:52:08.328Z,10.35
2023-04-28T23:54:36.151Z,10.02
2023-04-28T23:57:03.065Z,11.20
2023-04-28T23:59:29.865Z,10.55
